Grays, Arkansas
Current Conditions -  °F | °C
As of 10:56 PM on Saturday 22 Nov 2014 (Local Time) from KM19 Reporting Station
Broken Clouds Broken Clouds  
Wind Chill: 50°   Ceiling: 3800
Heat Index: 50°   Visibility: 10mi
Dew Point: 45°   Wind: 13mph
Humidity: 83%   Direction: 110°ESE
Pressure: 29.93"   Gusts: NA
Location:  35.2139°N, 91.1509°W
Report Text: KM19 230456Z AUTO 11011KT 10SM BKN038 BKN046 10/07 A2993 RMK AO2 T01000072 SLP132
Loading
Personal Weather Stations






























Interactive Weather Map New forecast layout! Learn more

10-Day Weather Forecast

Advertisements
Track Severe Weather on mobile